sensor_id;sensor_type;location;lat;lon;timestamp;P1;durP1;ratioP1;P2;durP2;ratioP2
74963;SDS011;63521;51.900;4.748;2023-04-03T00:00:04;0.88;;;0.70;;
74963;SDS011;63521;51.900;4.748;2023-04-03T00:02:30;0.70;;;0.60;;
74963;SDS011;63521;51.900;4.748;2023-04-03T00:04:55;0.88;;;0.60;;
74963;SDS011;63521;51.900;4.748;2023-04-03T00:07:24;1.42;;;0.90;;
74963;SDS011;63521;51.900;4.748;2023-04-03T00:09:49;1.35;;;0.60;;
74963;SDS011;63521;51.900;4.748;2023-04-03T00:12:15;0.73;;;0.60;;
74963;SDS011;63521;51.900;4.748;2023-04-03T00:14:40;0.82;;;0.68;;
74963;SDS011;63521;51.900;4.748;2023-04-03T00:17:06;1.35;;;0.57;;
74963;SDS011;63521;51.900;4.748;2023-04-03T00:19:31;0.60;;;0.60;;
74963;SDS011;63521;51.900;4.748;2023-04-03T00:21:56;0.70;;;0.60;;
74963;SDS011;63521;51.900;4.748;2023-04-03T00:24:22;0.50;;;0.50;;
74963;SDS011;63521;51.900;4.748;2023-04-03T00:26:47;0.55;;;0.55;;
74963;SDS011;63521;51.900;4.748;2023-04-03T00:29:13;0.60;;;0.50;;
74963;SDS011;63521;51.900;4.748;2023-04-03T00:31:38;0.98;;;0.70;;
74963;SDS011;63521;51.900;4.748;2023-04-03T00:34:03;1.15;;;0.70;;
74963;SDS011;63521;51.900;4.748;2023-04-03T00:36:29;1.33;;;0.77;;
74963;SDS011;63521;51.900;4.748;2023-04-03T00:38:54;2.50;;;0.70;;
74963;SDS011;63521;51.900;4.748;2023-04-03T00:41:20;0.60;;;0.60;;
74963;SDS011;63521;51.900;4.748;2023-04-03T00:43:46;0.47;;;0.40;;
74963;SDS011;63521;51.900;4.748;2023-04-03T00:46:11;0.60;;;0.60;;
74963;SDS011;63521;51.900;4.748;2023-04-03T00:48:41;0.65;;;0.50;;
74963;SDS011;63521;51.900;4.748;2023-04-03T00:51:11;0.70;;;0.60;;
74963;SDS011;63521;51.900;4.748;2023-04-03T00:53:40;0.65;;;0.65;;
74963;SDS011;63521;51.900;4.748;2023-04-03T00:56:09;2.38;;;0.77;;
74963;SDS011;63521;51.900;4.748;2023-04-03T00:58:41;1.38;;;0.68;;
74963;SDS011;63521;51.900;4.748;2023-04-03T01:01:12;2.20;;;0.68;;
74963;SDS011;63521;51.900;4.748;2023-04-03T01:03:41;1.00;;;0.52;;
74963;SDS011;63521;51.900;4.748;2023-04-03T01:06:07;1.20;;;0.70;;
74963;SDS011;63521;51.900;4.748;2023-04-03T01:08:32;1.15;;;0.60;;
74963;SDS011;63521;51.900;4.748;2023-04-03T01:11:00;1.50;;;0.80;;
74963;SDS011;63521;51.900;4.748;2023-04-03T01:13:30;0.90;;;0.70;;
74963;SDS011;63521;51.900;4.748;2023-04-03T01:15:56;0.60;;;0.60;;
74963;SDS011;63521;51.900;4.748;2023-04-03T01:18:22;0.45;;;0.43;;
74963;SDS011;63521;51.900;4.748;2023-04-03T01:26:41;1.02;;;0.70;;
74963;SDS011;63521;51.900;4.748;2023-04-03T01:29:06;0.77;;;0.70;;
74963;SDS011;63521;51.900;4.748;2023-04-03T01:34:00;1.08;;;0.73;;
74963;SDS011;63521;51.900;4.748;2023-04-03T01:36:27;1.75;;;0.88;;
74963;SDS011;63521;51.900;4.748;2023-04-03T01:38:54;1.48;;;0.70;;
74963;SDS011;63521;51.900;4.748;2023-04-03T01:41:20;4.45;;;1.00;;
74963;SDS011;63521;51.900;4.748;2023-04-03T01:43:46;1.08;;;0.80;;
74963;SDS011;63521;51.900;4.748;2023-04-03T01:46:13;2.40;;;0.80;;
74963;SDS011;63521;51.900;4.748;2023-04-03T01:48:38;0.82;;;0.63;;
74963;SDS011;63521;51.900;4.748;2023-04-03T01:51:04;1.67;;;0.60;;
74963;SDS011;63521;51.900;4.748;2023-04-03T01:53:29;0.90;;;0.68;;
74963;SDS011;63521;51.900;4.748;2023-04-03T01:55:55;1.13;;;0.80;;
74963;SDS011;63521;51.900;4.748;2023-04-03T01:58:20;4.53;;;0.88;;
74963;SDS011;63521;51.900;4.748;2023-04-03T02:00:46;0.45;;;0.45;;
74963;SDS011;63521;51.900;4.748;2023-04-03T02:03:12;0.65;;;0.60;;
74963;SDS011;63521;51.900;4.748;2023-04-03T02:05:37;1.67;;;0.77;;
74963;SDS011;63521;51.900;4.748;2023-04-03T02:08:03;0.68;;;0.68;;
74963;SDS011;63521;51.900;4.748;2023-04-03T02:10:28;1.38;;;0.70;;
74963;SDS011;63521;51.900;4.748;2023-04-03T02:12:54;2.50;;;0.93;;
74963;SDS011;63521;51.900;4.748;2023-04-03T02:15:19;1.92;;;0.80;;
74963;SDS011;63521;51.900;4.748;2023-04-03T02:17:45;1.45;;;0.80;;
74963;SDS011;63521;51.900;4.748;2023-04-03T02:20:10;0.85;;;0.70;;
74963;SDS011;63521;51.900;4.748;2023-04-03T02:22:36;1.88;;;0.82;;
74963;SDS011;63521;51.900;4.748;2023-04-03T02:25:01;1.58;;;0.70;;
74963;SDS011;63521;51.900;4.748;2023-04-03T02:27:27;1.05;;;0.60;;
74963;SDS011;63521;51.900;4.748;2023-04-03T02:29:52;0.93;;;0.68;;
74963;SDS011;63521;51.900;4.748;2023-04-03T02:32:18;1.60;;;0.90;;
74963;SDS011;63521;51.900;4.748;2023-04-03T02:34:43;0.90;;;0.82;;
74963;SDS011;63521;51.900;4.748;2023-04-03T02:37:08;0.43;;;0.40;;
74963;SDS011;63521;51.900;4.748;2023-04-03T02:39:34;1.42;;;0.98;;
74963;SDS011;63521;51.900;4.748;2023-04-03T02:41:59;0.68;;;0.68;;
74963;SDS011;63521;51.900;4.748;2023-04-03T02:44:25;1.77;;;0.70;;
74963;SDS011;63521;51.900;4.748;2023-04-03T02:46:50;1.42;;;0.73;;
74963;SDS011;63521;51.900;4.748;2023-04-03T02:49:16;1.40;;;0.70;;
74963;SDS011;63521;51.900;4.748;2023-04-03T02:51:41;0.93;;;0.55;;
74963;SDS011;63521;51.900;4.748;2023-04-03T02:54:07;0.85;;;0.70;;
74963;SDS011;63521;51.900;4.748;2023-04-03T02:56:34;1.42;;;0.85;;
74963;SDS011;63521;51.900;4.748;2023-04-03T02:59:00;0.55;;;0.50;;
74963;SDS011;63521;51.900;4.748;2023-04-03T03:01:25;0.68;;;0.50;;
74963;SDS011;63521;51.900;4.748;2023-04-03T03:03:53;0.88;;;0.70;;
74963;SDS011;63521;51.900;4.748;2023-04-03T03:06:19;1.88;;;0.88;;
74963;SDS011;63521;51.900;4.748;2023-04-03T03:08:44;1.33;;;0.70;;
74963;SDS011;63521;51.900;4.748;2023-04-03T03:11:10;0.93;;;0.60;;
74963;SDS011;63521;51.900;4.748;2023-04-03T03:13:36;0.82;;;0.60;;
74963;SDS011;63521;51.900;4.748;2023-04-03T03:16:02;0.60;;;0.60;;
74963;SDS011;63521;51.900;4.748;2023-04-03T03:18:28;1.52;;;0.77;;
74963;SDS011;63521;51.900;4.748;2023-04-03T03:20:57;1.35;;;0.68;;
74963;SDS011;63521;51.900;4.748;2023-04-03T03:23:24;1.75;;;0.93;;
74963;SDS011;63521;51.900;4.748;2023-04-03T03:25:54;1.88;;;0.82;;
74963;SDS011;63521;51.900;4.748;2023-04-03T03:28:21;1.02;;;0.82;;
74963;SDS011;63521;51.900;4.748;2023-04-03T03:30:46;0.98;;;0.68;;
74963;SDS011;63521;51.900;4.748;2023-04-03T03:33:12;1.15;;;0.90;;
74963;SDS011;63521;51.900;4.748;2023-04-03T03:35:37;1.00;;;0.68;;
74963;SDS011;63521;51.900;4.748;2023-04-03T03:38:02;1.52;;;0.80;;
74963;SDS011;63521;51.900;4.748;2023-04-03T03:40:28;1.92;;;0.73;;
74963;SDS011;63521;51.900;4.748;2023-04-03T03:42:53;1.25;;;0.77;;
74963;SDS011;63521;51.900;4.748;2023-04-03T03:45:19;1.92;;;0.90;;
74963;SDS011;63521;51.900;4.748;2023-04-03T03:47:46;2.00;;;0.90;;
74963;SDS011;63521;51.900;4.748;2023-04-03T03:50:12;0.80;;;0.70;;
74963;SDS011;63521;51.900;4.748;2023-04-03T03:52:37;0.82;;;0.70;;
74963;SDS011;63521;51.900;4.748;2023-04-03T03:55:03;1.65;;;0.82;;
74963;SDS011;63521;51.900;4.748;2023-04-03T03:57:29;2.90;;;0.95;;
74963;SDS011;63521;51.900;4.748;2023-04-03T03:59:55;1.23;;;0.82;;
74963;SDS011;63521;51.900;4.748;2023-04-03T04:02:21;2.67;;;1.02;;
74963;SDS011;63521;51.900;4.748;2023-04-03T04:04:47;1.10;;;0.80;;
74963;SDS011;63521;51.900;4.748;2023-04-03T04:07:13;1.65;;;0.80;;
74963;SDS011;63521;51.900;4.748;2023-04-03T04:09:39;1.92;;;0.90;;
74963;SDS011;63521;51.900;4.748;2023-04-03T04:12:05;1.85;;;0.80;;
74963;SDS011;63521;51.900;4.748;2023-04-03T04:14:31;0.75;;;0.63;;
74963;SDS011;63521;51.900;4.748;2023-04-03T04:16:56;1.38;;;0.90;;
74963;SDS011;63521;51.900;4.748;2023-04-03T04:19:21;1.30;;;0.85;;
74963;SDS011;63521;51.900;4.748;2023-04-03T04:21:47;0.98;;;0.73;;
74963;SDS011;63521;51.900;4.748;2023-04-03T04:24:13;2.50;;;0.90;;
74963;SDS011;63521;51.900;4.748;2023-04-03T04:26:38;1.00;;;0.80;;
74963;SDS011;63521;51.900;4.748;2023-04-03T04:29:03;1.17;;;0.80;;
74963;SDS011;63521;51.900;4.748;2023-04-03T04:31:29;1.52;;;0.90;;
74963;SDS011;63521;51.900;4.748;2023-04-03T04:33:54;1.63;;;0.77;;
74963;SDS011;63521;51.900;4.748;2023-04-03T04:36:20;1.27;;;0.80;;
74963;SDS011;63521;51.900;4.748;2023-04-03T04:38:45;1.83;;;1.00;;
74963;SDS011;63521;51.900;4.748;2023-04-03T04:41:11;2.67;;;0.88;;
74963;SDS011;63521;51.900;4.748;2023-04-03T04:43:36;1.08;;;0.68;;
74963;SDS011;63521;51.900;4.748;2023-04-03T04:46:06;0.75;;;0.68;;
74963;SDS011;63521;51.900;4.748;2023-04-03T04:48:33;1.17;;;0.55;;
74963;SDS011;63521;51.900;4.748;2023-04-03T04:51:00;1.13;;;0.80;;
74963;SDS011;63521;51.900;4.748;2023-04-03T04:53:26;1.45;;;0.60;;
74963;SDS011;63521;51.900;4.748;2023-04-03T04:55:52;1.33;;;0.65;;
74963;SDS011;63521;51.900;4.748;2023-04-03T04:58:18;1.30;;;0.80;;
74963;SDS011;63521;51.900;4.748;2023-04-03T05:00:44;1.65;;;0.82;;
74963;SDS011;63521;51.900;4.748;2023-04-03T05:03:10;1.58;;;0.60;;
74963;SDS011;63521;51.900;4.748;2023-04-03T05:05:36;1.30;;;0.60;;
74963;SDS011;63521;51.900;4.748;2023-04-03T05:08:02;0.98;;;0.65;;
74963;SDS011;63521;51.900;4.748;2023-04-03T05:10:28;1.02;;;0.63;;
74963;SDS011;63521;51.900;4.748;2023-04-03T05:12:54;2.03;;;0.85;;
74963;SDS011;63521;51.900;4.748;2023-04-03T05:15:19;0.80;;;0.70;;
74963;SDS011;63521;51.900;4.748;2023-04-03T05:17:45;0.77;;;0.70;;
74963;SDS011;63521;51.900;4.748;2023-04-03T05:20:11;0.95;;;0.60;;
74963;SDS011;63521;51.900;4.748;2023-04-03T05:22:36;1.15;;;0.80;;
74963;SDS011;63521;51.900;4.748;2023-04-03T05:25:02;0.60;;;0.60;;
74963;SDS011;63521;51.900;4.748;2023-04-03T05:27:27;1.27;;;0.63;;
74963;SDS011;63521;51.900;4.748;2023-04-03T05:29:53;0.63;;;0.60;;
74963;SDS011;63521;51.900;4.748;2023-04-03T05:32:19;0.85;;;0.68;;
74963;SDS011;63521;51.900;4.748;2023-04-03T05:34:45;0.93;;;0.65;;
74963;SDS011;63521;51.900;4.748;2023-04-03T05:37:11;1.60;;;0.90;;
74963;SDS011;63521;51.900;4.748;2023-04-03T05:39:37;2.00;;;0.70;;
74963;SDS011;63521;51.900;4.748;2023-04-03T06:07:39;2.05;;;1.10;;
74963;SDS011;63521;51.900;4.748;2023-04-03T06:10:04;1.08;;;0.90;;
74963;SDS011;63521;51.900;4.748;2023-04-03T06:12:30;1.02;;;0.60;;
74963;SDS011;63521;51.900;4.748;2023-04-03T06:14:56;1.70;;;1.08;;
74963;SDS011;63521;51.900;4.748;2023-04-03T06:17:22;1.45;;;1.08;;
74963;SDS011;63521;51.900;4.748;2023-04-03T06:19:48;1.45;;;0.80;;
74963;SDS011;63521;51.900;4.748;2023-04-03T06:22:14;1.08;;;0.80;;
74963;SDS011;63521;51.900;4.748;2023-04-03T06:24:40;2.10;;;1.05;;
74963;SDS011;63521;51.900;4.748;2023-04-03T06:27:05;2.28;;;1.08;;
74963;SDS011;63521;51.900;4.748;2023-04-03T06:29:30;1.58;;;0.90;;
74963;SDS011;63521;51.900;4.748;2023-04-03T06:31:57;3.03;;;1.13;;
74963;SDS011;63521;51.900;4.748;2023-04-03T06:34:24;1.27;;;0.73;;
74963;SDS011;63521;51.900;4.748;2023-04-03T06:36:50;0.73;;;0.70;;
74963;SDS011;63521;51.900;4.748;2023-04-03T06:39:17;1.88;;;1.00;;
74963;SDS011;63521;51.900;4.748;2023-04-03T06:41:45;1.13;;;0.88;;
74963;SDS011;63521;51.900;4.748;2023-04-03T06:44:11;1.42;;;1.00;;
74963;SDS011;63521;51.900;4.748;2023-04-03T06:46:38;1.40;;;1.08;;
74963;SDS011;63521;51.900;4.748;2023-04-03T06:49:04;1.80;;;1.20;;
74963;SDS011;63521;51.900;4.748;2023-04-03T06:51:35;1.40;;;1.02;;
74963;SDS011;63521;51.900;4.748;2023-04-03T06:55:03;1.55;;;1.20;;
74963;SDS011;63521;51.900;4.748;2023-04-03T06:57:31;2.22;;;1.10;;
74963;SDS011;63521;51.900;4.748;2023-04-03T06:59:57;2.40;;;1.02;;
74963;SDS011;63521;51.900;4.748;2023-04-03T07:02:25;2.00;;;1.02;;
74963;SDS011;63521;51.900;4.748;2023-04-03T07:04:58;2.97;;;1.25;;
74963;SDS011;63521;51.900;4.748;2023-04-03T07:07:31;3.63;;;1.17;;
74963;SDS011;63521;51.900;4.748;2023-04-03T07:09:58;4.15;;;1.38;;
74963;SDS011;63521;51.900;4.748;2023-04-03T07:12:27;1.98;;;1.13;;
74963;SDS011;63521;51.900;4.748;2023-04-03T07:14:57;1.70;;;1.13;;
74963;SDS011;63521;51.900;4.748;2023-04-03T07:17:23;2.45;;;1.20;;
74963;SDS011;63521;51.900;4.748;2023-04-03T07:19:48;3.08;;;1.38;;
74963;SDS011;63521;51.900;4.748;2023-04-03T07:22:14;2.67;;;1.40;;
74963;SDS011;63521;51.900;4.748;2023-04-03T07:24:46;2.83;;;1.15;;
74963;SDS011;63521;51.900;4.748;2023-04-03T07:27:12;3.00;;;1.27;;
74963;SDS011;63521;51.900;4.748;2023-04-03T07:29:38;3.55;;;1.30;;
74963;SDS011;63521;51.900;4.748;2023-04-03T07:32:04;3.55;;;1.25;;
74963;SDS011;63521;51.900;4.748;2023-04-03T07:34:31;1.70;;;1.10;;
74963;SDS011;63521;51.900;4.748;2023-04-03T07:36:57;4.28;;;1.50;;
74963;SDS011;63521;51.900;4.748;2023-04-03T07:39:24;2.47;;;1.50;;
74963;SDS011;63521;51.900;4.748;2023-04-03T07:41:50;3.95;;;1.40;;
74963;SDS011;63521;51.900;4.748;2023-04-03T07:44:16;2.80;;;1.25;;
74963;SDS011;63521;51.900;4.748;2023-04-03T07:46:42;3.78;;;1.27;;
74963;SDS011;63521;51.900;4.748;2023-04-03T07:49:08;1.58;;;1.23;;
74963;SDS011;63521;51.900;4.748;2023-04-03T07:51:33;3.65;;;1.60;;
74963;SDS011;63521;51.900;4.748;2023-04-03T07:54:03;3.30;;;1.20;;
74963;SDS011;63521;51.900;4.748;2023-04-03T07:56:29;4.93;;;1.50;;
74963;SDS011;63521;51.900;4.748;2023-04-03T07:59:00;2.08;;;1.00;;
74963;SDS011;63521;51.900;4.748;2023-04-03T08:01:29;1.70;;;0.98;;
74963;SDS011;63521;51.900;4.748;2023-04-03T08:04:02;2.47;;;0.98;;
74963;SDS011;63521;51.900;4.748;2023-04-03T08:06:28;1.77;;;0.98;;
74963;SDS011;63521;51.900;4.748;2023-04-03T08:08:58;2.00;;;1.17;;
74963;SDS011;63521;51.900;4.748;2023-04-03T08:11:24;1.17;;;0.95;;
74963;SDS011;63521;51.900;4.748;2023-04-03T08:13:51;1.92;;;1.20;;
74963;SDS011;63521;51.900;4.748;2023-04-03T08:16:17;2.65;;;1.17;;
74963;SDS011;63521;51.900;4.748;2023-04-03T08:18:43;3.83;;;1.27;;
74963;SDS011;63521;51.900;4.748;2023-04-03T08:21:09;3.70;;;1.20;;
74963;SDS011;63521;51.900;4.748;2023-04-03T08:23:36;3.13;;;1.20;;
74963;SDS011;63521;51.900;4.748;2023-04-03T08:26:05;5.40;;;1.52;;
74963;SDS011;63521;51.900;4.748;2023-04-03T08:28:35;1.98;;;0.93;;
74963;SDS011;63521;51.900;4.748;2023-04-03T08:31:04;3.05;;;1.13;;
74963;SDS011;63521;51.900;4.748;2023-04-03T08:33:31;2.42;;;1.10;;
74963;SDS011;63521;51.900;4.748;2023-04-03T08:35:57;2.90;;;1.13;;
74963;SDS011;63521;51.900;4.748;2023-04-03T08:38:22;3.10;;;1.23;;
74963;SDS011;63521;51.900;4.748;2023-04-03T08:40:58;2.78;;;1.00;;
74963;SDS011;63521;51.900;4.748;2023-04-03T08:43:31;2.35;;;1.05;;
74963;SDS011;63521;51.900;4.748;2023-04-03T08:46:01;1.45;;;0.90;;
74963;SDS011;63521;51.900;4.748;2023-04-03T08:48:29;3.25;;;1.02;;
74963;SDS011;63521;51.900;4.748;2023-04-03T08:50:58;1.73;;;1.00;;
74963;SDS011;63521;51.900;4.748;2023-04-03T08:53:27;1.17;;;1.05;;
74963;SDS011;63521;51.900;4.748;2023-04-03T08:55:56;2.40;;;0.80;;
74963;SDS011;63521;51.900;4.748;2023-04-03T08:58:29;3.00;;;1.40;;
74963;SDS011;63521;51.900;4.748;2023-04-03T09:01:00;2.30;;;0.90;;
74963;SDS011;63521;51.900;4.748;2023-04-03T09:03:32;2.83;;;0.98;;
74963;SDS011;63521;51.900;4.748;2023-04-03T09:06:05;2.70;;;1.20;;
74963;SDS011;63521;51.900;4.748;2023-04-03T09:08:33;1.80;;;0.80;;
74963;SDS011;63521;51.900;4.748;2023-04-03T09:13:35;1.23;;;0.95;;
74963;SDS011;63521;51.900;4.748;2023-04-03T09:19:05;1.05;;;0.75;;
74963;SDS011;63521;51.900;4.748;2023-04-03T09:21:38;2.20;;;0.90;;
74963;SDS011;63521;51.900;4.748;2023-04-03T09:24:07;1.45;;;1.08;;
74963;SDS011;63521;51.900;4.748;2023-04-03T09:29:24;1.02;;;0.55;;
74963;SDS011;63521;51.900;4.748;2023-04-03T09:31:52;1.25;;;0.80;;
74963;SDS011;63521;51.900;4.748;2023-04-03T09:34:30;1.55;;;0.80;;
74963;SDS011;63521;51.900;4.748;2023-04-03T09:36:58;1.20;;;0.77;;
74963;SDS011;63521;51.900;4.748;2023-04-03T09:39:30;1.95;;;1.00;;
74963;SDS011;63521;51.900;4.748;2023-04-03T09:44:38;0.73;;;0.60;;
74963;SDS011;63521;51.900;4.748;2023-04-03T09:47:18;1.08;;;0.80;;
74963;SDS011;63521;51.900;4.748;2023-04-03T09:52:39;1.83;;;0.70;;
74963;SDS011;63521;51.900;4.748;2023-04-03T09:55:19;1.05;;;0.63;;
74963;SDS011;63521;51.900;4.748;2023-04-03T09:57:51;2.47;;;0.70;;
74963;SDS011;63521;51.900;4.748;2023-04-03T10:00:23;1.00;;;0.70;;
74963;SDS011;63521;51.900;4.748;2023-04-03T10:02:54;1.52;;;0.63;;
74963;SDS011;63521;51.900;4.748;2023-04-03T10:05:40;1.15;;;0.70;;
74963;SDS011;63521;51.900;4.748;2023-04-03T10:10:37;2.30;;;0.80;;
74963;SDS011;63521;51.900;4.748;2023-04-03T10:13:04;1.25;;;0.57;;
74963;SDS011;63521;51.900;4.748;2023-04-03T10:15:33;0.93;;;0.57;;
74963;SDS011;63521;51.900;4.748;2023-04-03T10:18:05;1.58;;;0.77;;
74963;SDS011;63521;51.900;4.748;2023-04-03T10:21:23;1.52;;;0.60;;
74963;SDS011;63521;51.900;4.748;2023-04-03T10:27:51;1.00;;;0.30;;
74963;SDS011;63521;51.900;4.748;2023-04-03T10:30:04;0.80;;;0.45;;
74963;SDS011;63521;51.900;4.748;2023-04-03T10:32:45;0.73;;;0.43;;
74963;SDS011;63521;51.900;4.748;2023-04-03T10:40:39;0.50;;;0.50;;
74963;SDS011;63521;51.900;4.748;2023-04-03T10:53:57;0.25;;;0.22;;
74963;SDS011;63521;51.900;4.748;2023-04-03T10:56:41;0.45;;;0.35;;
74963;SDS011;63521;51.900;4.748;2023-04-03T10:59:30;0.82;;;0.30;;
74963;SDS011;63521;51.900;4.748;2023-04-03T11:02:06;0.32;;;0.30;;
74963;SDS011;63521;51.900;4.748;2023-04-03T11:04:37;0.43;;;0.30;;
74963;SDS011;63521;51.900;4.748;2023-04-03T11:07:14;1.60;;;0.30;;
74963;SDS011;63521;51.900;4.748;2023-04-03T11:15:11;0.98;;;0.30;;
74963;SDS011;63521;51.900;4.748;2023-04-03T11:17:45;1.17;;;0.30;;
74963;SDS011;63521;51.900;4.748;2023-04-03T11:26:01;0.32;;;0.30;;
74963;SDS011;63521;51.900;4.748;2023-04-03T11:28:32;0.43;;;0.43;;
74963;SDS011;63521;51.900;4.748;2023-04-03T11:31:08;0.30;;;0.25;;
74963;SDS011;63521;51.900;4.748;2023-04-03T11:36:24;0.28;;;0.28;;
74963;SDS011;63521;51.900;4.748;2023-04-03T11:38:52;0.43;;;0.30;;
74963;SDS011;63521;51.900;4.748;2023-04-03T11:41:32;0.47;;;0.47;;
74963;SDS011;63521;51.900;4.748;2023-04-03T11:43:59;0.43;;;0.43;;
74963;SDS011;63521;51.900;4.748;2023-04-03T11:52:39;0.52;;;0.30;;
74963;SDS011;63521;51.900;4.748;2023-04-03T11:55:35;0.98;;;0.45;;
74963;SDS011;63521;51.900;4.748;2023-04-03T12:08:24;0.45;;;0.40;;
74963;SDS011;63521;51.900;4.748;2023-04-03T12:26:47;1.10;;;0.40;;
74963;SDS011;63521;51.900;4.748;2023-04-03T12:45:29;1.73;;;0.65;;
74963;SDS011;63521;51.900;4.748;2023-04-03T12:48:15;0.52;;;0.40;;
74963;SDS011;63521;51.900;4.748;2023-04-03T12:50:43;0.85;;;0.70;;
74963;SDS011;63521;51.900;4.748;2023-04-03T12:53:15;0.82;;;0.80;;
74963;SDS011;63521;51.900;4.748;2023-04-03T12:55:43;0.70;;;0.40;;
74963;SDS011;63521;51.900;4.748;2023-04-03T13:01:00;1.73;;;0.70;;
74963;SDS011;63521;51.900;4.748;2023-04-03T13:03:27;0.75;;;0.50;;
74963;SDS011;63521;51.900;4.748;2023-04-03T13:05:54;0.75;;;0.63;;
74963;SDS011;63521;51.900;4.748;2023-04-03T13:08:24;1.23;;;0.60;;
74963;SDS011;63521;51.900;4.748;2023-04-03T13:13:35;1.70;;;0.50;;
74963;SDS011;63521;51.900;4.748;2023-04-03T13:16:07;1.38;;;0.50;;
74963;SDS011;63521;51.900;4.748;2023-04-03T13:18:35;4.68;;;1.50;;
74963;SDS011;63521;51.900;4.748;2023-04-03T13:21:13;1.00;;;0.68;;
74963;SDS011;63521;51.900;4.748;2023-04-03T13:23:41;1.95;;;0.80;;
74963;SDS011;63521;51.900;4.748;2023-04-03T13:26:08;1.08;;;0.77;;
74963;SDS011;63521;51.900;4.748;2023-04-03T13:28:34;0.60;;;0.50;;
74963;SDS011;63521;51.900;4.748;2023-04-03T13:31:43;1.05;;;0.68;;
74963;SDS011;63521;51.900;4.748;2023-04-03T13:34:11;0.80;;;0.60;;
74963;SDS011;63521;51.900;4.748;2023-04-03T13:36:43;1.25;;;0.60;;
74963;SDS011;63521;51.900;4.748;2023-04-03T13:41:36;3.37;;;0.80;;
74963;SDS011;63521;51.900;4.748;2023-04-03T13:46:47;0.88;;;0.65;;
74963;SDS011;63521;51.900;4.748;2023-04-03T13:53:09;2.83;;;0.80;;
74963;SDS011;63521;51.900;4.748;2023-04-03T13:58:28;0.65;;;0.63;;
74963;SDS011;63521;51.900;4.748;2023-04-03T14:00:54;1.13;;;0.90;;
74963;SDS011;63521;51.900;4.748;2023-04-03T14:03:45;2.47;;;0.60;;
74963;SDS011;63521;51.900;4.748;2023-04-03T14:06:13;1.13;;;0.60;;
74963;SDS011;63521;51.900;4.748;2023-04-03T14:08:40;1.92;;;0.88;;
74963;SDS011;63521;51.900;4.748;2023-04-03T14:11:08;2.55;;;0.70;;
74963;SDS011;63521;51.900;4.748;2023-04-03T14:13:36;0.95;;;0.65;;
74963;SDS011;63521;51.900;4.748;2023-04-03T14:16:01;0.85;;;0.55;;
74963;SDS011;63521;51.900;4.748;2023-04-03T14:18:26;2.88;;;0.75;;
74963;SDS011;63521;51.900;4.748;2023-04-03T14:20:52;0.70;;;0.60;;
74963;SDS011;63521;51.900;4.748;2023-04-03T14:23:17;0.70;;;0.50;;
74963;SDS011;63521;51.900;4.748;2023-04-03T14:25:43;6.88;;;0.68;;
74963;SDS011;63521;51.900;4.748;2023-04-03T14:28:18;2.75;;;0.88;;
74963;SDS011;63521;51.900;4.748;2023-04-03T14:30:46;1.48;;;0.52;;
74963;SDS011;63521;51.900;4.748;2023-04-03T14:33:13;1.35;;;0.90;;
74963;SDS011;63521;51.900;4.748;2023-04-03T14:38:56;1.80;;;0.70;;
74963;SDS011;63521;51.900;4.748;2023-04-03T14:41:23;1.42;;;0.70;;
74963;SDS011;63521;51.900;4.748;2023-04-03T14:43:52;0.55;;;0.55;;
74963;SDS011;63521;51.900;4.748;2023-04-03T14:46:29;1.13;;;0.70;;
74963;SDS011;63521;51.900;4.748;2023-04-03T14:49:02;1.83;;;0.80;;
74963;SDS011;63521;51.900;4.748;2023-04-03T14:51:34;1.42;;;0.80;;
74963;SDS011;63521;51.900;4.748;2023-04-03T14:54:10;2.75;;;0.73;;
74963;SDS011;63521;51.900;4.748;2023-04-03T14:56:41;1.27;;;0.73;;
74963;SDS011;63521;51.900;4.748;2023-04-03T14:59:11;3.28;;;0.90;;
74963;SDS011;63521;51.900;4.748;2023-04-03T15:01:37;1.42;;;0.63;;
74963;SDS011;63521;51.900;4.748;2023-04-03T15:04:19;1.30;;;0.88;;
74963;SDS011;63521;51.900;4.748;2023-04-03T15:06:45;1.60;;;0.80;;
74963;SDS011;63521;51.900;4.748;2023-04-03T15:09:19;0.98;;;0.82;;
74963;SDS011;63521;51.900;4.748;2023-04-03T15:11:45;1.65;;;0.75;;
74963;SDS011;63521;51.900;4.748;2023-04-03T15:14:11;1.35;;;0.77;;
74963;SDS011;63521;51.900;4.748;2023-04-03T15:16:36;0.85;;;0.80;;
74963;SDS011;63521;51.900;4.748;2023-04-03T15:19:02;1.90;;;0.63;;
74963;SDS011;63521;51.900;4.748;2023-04-03T15:21:27;1.63;;;0.98;;
74963;SDS011;63521;51.900;4.748;2023-04-03T15:23:53;0.95;;;0.63;;
74963;SDS011;63521;51.900;4.748;2023-04-03T15:26:18;4.22;;;0.80;;
74963;SDS011;63521;51.900;4.748;2023-04-03T15:28:43;2.30;;;0.80;;
74963;SDS011;63521;51.900;4.748;2023-04-03T15:31:09;1.83;;;0.80;;
74963;SDS011;63521;51.900;4.748;2023-04-03T15:33:35;1.38;;;0.60;;
74963;SDS011;63521;51.900;4.748;2023-04-03T15:36:01;1.10;;;0.70;;
74963;SDS011;63521;51.900;4.748;2023-04-03T15:38:26;2.05;;;0.70;;
74963;SDS011;63521;51.900;4.748;2023-04-03T15:40:52;1.30;;;0.60;;
74963;SDS011;63521;51.900;4.748;2023-04-03T15:43:19;1.35;;;0.95;;
74963;SDS011;63521;51.900;4.748;2023-04-03T15:45:44;1.17;;;0.70;;
74963;SDS011;63521;51.900;4.748;2023-04-03T15:48:10;1.73;;;0.90;;
74963;SDS011;63521;51.900;4.748;2023-04-03T15:50:36;1.30;;;0.77;;
74963;SDS011;63521;51.900;4.748;2023-04-03T15:53:01;1.55;;;0.70;;
74963;SDS011;63521;51.900;4.748;2023-04-03T15:55:30;1.30;;;0.60;;
74963;SDS011;63521;51.900;4.748;2023-04-03T15:57:57;1.55;;;0.55;;
74963;SDS011;63521;51.900;4.748;2023-04-03T16:00:23;2.38;;;0.80;;
74963;SDS011;63521;51.900;4.748;2023-04-03T16:02:57;0.60;;;0.60;;
74963;SDS011;63521;51.900;4.748;2023-04-03T16:05:26;1.52;;;0.80;;
74963;SDS011;63521;51.900;4.748;2023-04-03T16:07:51;2.17;;;1.02;;
74963;SDS011;63521;51.900;4.748;2023-04-03T16:10:17;0.70;;;0.70;;
74963;SDS011;63521;51.900;4.748;2023-04-03T16:12:43;1.60;;;0.70;;
74963;SDS011;63521;51.900;4.748;2023-04-03T16:15:09;2.00;;;0.93;;
74963;SDS011;63521;51.900;4.748;2023-04-03T16:17:35;0.60;;;0.60;;
74963;SDS011;63521;51.900;4.748;2023-04-03T16:20:02;1.23;;;0.98;;
74963;SDS011;63521;51.900;4.748;2023-04-03T16:22:29;1.83;;;0.57;;
74963;SDS011;63521;51.900;4.748;2023-04-03T16:24:55;2.20;;;0.82;;
74963;SDS011;63521;51.900;4.748;2023-04-03T16:27:20;1.90;;;0.73;;
74963;SDS011;63521;51.900;4.748;2023-04-03T16:29:47;1.48;;;0.90;;
74963;SDS011;63521;51.900;4.748;2023-04-03T16:32:12;4.85;;;0.77;;
74963;SDS011;63521;51.900;4.748;2023-04-03T16:34:38;3.83;;;1.48;;
74963;SDS011;63521;51.900;4.748;2023-04-03T16:37:05;1.88;;;0.70;;
74963;SDS011;63521;51.900;4.748;2023-04-03T16:39:31;0.82;;;0.73;;
74963;SDS011;63521;51.900;4.748;2023-04-03T16:41:56;2.40;;;0.80;;
74963;SDS011;63521;51.900;4.748;2023-04-03T16:44:21;1.02;;;0.45;;
74963;SDS011;63521;51.900;4.748;2023-04-03T16:46:47;2.35;;;0.80;;
74963;SDS011;63521;51.900;4.748;2023-04-03T16:49:12;1.27;;;0.98;;
74963;SDS011;63521;51.900;4.748;2023-04-03T16:51:38;1.77;;;0.82;;
74963;SDS011;63521;51.900;4.748;2023-04-03T16:54:03;1.33;;;0.80;;
74963;SDS011;63521;51.900;4.748;2023-04-03T16:56:29;1.42;;;0.80;;
74963;SDS011;63521;51.900;4.748;2023-04-03T16:58:54;1.02;;;0.65;;
74963;SDS011;63521;51.900;4.748;2023-04-03T17:01:20;1.50;;;1.00;;
74963;SDS011;63521;51.900;4.748;2023-04-03T17:03:46;3.08;;;0.80;;
74963;SDS011;63521;51.900;4.748;2023-04-03T17:06:16;1.25;;;0.80;;
74963;SDS011;63521;51.900;4.748;2023-04-03T17:08:43;2.63;;;0.80;;
74963;SDS011;63521;51.900;4.748;2023-04-03T17:11:10;1.50;;;0.68;;
74963;SDS011;63521;51.900;4.748;2023-04-03T17:13:35;1.15;;;0.65;;
74963;SDS011;63521;51.900;4.748;2023-04-03T17:16:01;1.73;;;0.80;;
74963;SDS011;63521;51.900;4.748;2023-04-03T17:18:29;1.98;;;0.85;;
74963;SDS011;63521;51.900;4.748;2023-04-03T17:20:55;1.10;;;0.80;;
74963;SDS011;63521;51.900;4.748;2023-04-03T17:23:21;2.38;;;0.70;;
74963;SDS011;63521;51.900;4.748;2023-04-03T17:25:46;4.15;;;0.75;;